DRS weather

Dresden Airport
Dresden, Saxony, Germany

Public forecast

Using degrees Celsius for public forecast. Weather courtesy of forecast.io.

Current aviation weather report (METAR) for Dresden Airport

Retrieved 2020/08/04 22:20 UTC (21 minutes ago):

EDDC 042220Z 22005KT CAVOK 15/12 Q1018

Aviation forecast (TAF) for Dresden Airport

Retrieved 2020/08/04 18:27 UTC (4 hours ago):

TAF EDDC 041700Z 0418/0518 VRB03KT CAVOK BECMG 0420/0422 18005KT BECMG 0510/0512 11005KT